< < Back
Terminal Aerodrome Forecast


Current Version              Previous Versions:   1  2  3  4  5  6  7  8  9  

Terminal Aerodrome Forecast

211
FTUS42 KCAE 291400 AAA
TAFCAE
TAF AMD
KCAE 291459Z 2915/3012 VRB03KT P6SM SKC
     FM291600 14006KT P6SM FEW050
     FM300900 VRB03KT 4SM BR SKC=

Latest METAR

644
SAUS80 KWBC 292000 CCA
MTRCAE
METAR KCAE 291956Z 12008G17KT 10SM FEW055 36/11 A3004 RMK AO2 SLP166
T03560111


USA.gov is the U.S. government's official web portal to all federal, state and local government web resources and services.